sensor_id;sensor_type;location;lat;lon;timestamp;P1;durP1;ratioP1;P2;durP2;ratioP2
74626;SDS011;63132;52.268;5.192;2022-12-24T00:01:20;35.58;;;6.10;;
74626;SDS011;63132;52.268;5.192;2022-12-24T00:03:46;40.03;;;6.47;;
74626;SDS011;63132;52.268;5.192;2022-12-24T00:06:15;39.55;;;6.53;;
74626;SDS011;63132;52.268;5.192;2022-12-24T00:08:42;36.60;;;6.45;;
74626;SDS011;63132;52.268;5.192;2022-12-24T00:11:08;42.70;;;6.88;;
74626;SDS011;63132;52.268;5.192;2022-12-24T00:13:33;39.00;;;6.67;;
74626;SDS011;63132;52.268;5.192;2022-12-24T00:15:59;48.57;;;7.97;;
74626;SDS011;63132;52.268;5.192;2022-12-24T00:18:24;37.00;;;6.90;;
74626;SDS011;63132;52.268;5.192;2022-12-24T00:20:50;38.50;;;6.57;;
74626;SDS011;63132;52.268;5.192;2022-12-24T00:23:16;40.83;;;7.13;;
74626;SDS011;63132;52.268;5.192;2022-12-24T00:25:42;43.95;;;6.85;;
74626;SDS011;63132;52.268;5.192;2022-12-24T00:28:07;37.88;;;6.82;;
74626;SDS011;63132;52.268;5.192;2022-12-24T00:30:33;43.13;;;6.67;;
74626;SDS011;63132;52.268;5.192;2022-12-24T00:32:58;42.07;;;7.47;;
74626;SDS011;63132;52.268;5.192;2022-12-24T00:35:24;42.20;;;6.50;;
74626;SDS011;63132;52.268;5.192;2022-12-24T00:37:49;37.72;;;6.95;;
74626;SDS011;63132;52.268;5.192;2022-12-24T00:40:16;41.35;;;7.20;;
74626;SDS011;63132;52.268;5.192;2022-12-24T00:42:42;41.15;;;6.85;;
74626;SDS011;63132;52.268;5.192;2022-12-24T00:45:09;43.40;;;6.90;;
74626;SDS011;63132;52.268;5.192;2022-12-24T00:47:35;36.00;;;6.82;;
74626;SDS011;63132;52.268;5.192;2022-12-24T00:50:00;42.50;;;6.77;;
74626;SDS011;63132;52.268;5.192;2022-12-24T00:52:26;41.07;;;7.10;;
74626;SDS011;63132;52.268;5.192;2022-12-24T00:54:52;42.53;;;7.13;;
74626;SDS011;63132;52.268;5.192;2022-12-24T00:57:17;46.40;;;7.50;;
74626;SDS011;63132;52.268;5.192;2022-12-24T00:59:43;42.08;;;7.10;;
74626;SDS011;63132;52.268;5.192;2022-12-24T01:02:08;45.77;;;7.70;;
74626;SDS011;63132;52.268;5.192;2022-12-24T01:04:33;46.33;;;7.80;;
74626;SDS011;63132;52.268;5.192;2022-12-24T01:07:17;41.95;;;7.72;;
74626;SDS011;63132;52.268;5.192;2022-12-24T01:09:43;46.73;;;7.97;;
74626;SDS011;63132;52.268;5.192;2022-12-24T01:12:08;44.80;;;7.57;;
74626;SDS011;63132;52.268;5.192;2022-12-24T01:14:34;46.15;;;7.55;;
74626;SDS011;63132;52.268;5.192;2022-12-24T01:17:01;45.63;;;8.18;;
74626;SDS011;63132;52.268;5.192;2022-12-24T01:19:26;45.20;;;7.63;;
74626;SDS011;63132;52.268;5.192;2022-12-24T01:21:52;49.15;;;7.65;;
74626;SDS011;63132;52.268;5.192;2022-12-24T01:24:17;42.17;;;7.83;;
74626;SDS011;63132;52.268;5.192;2022-12-24T01:26:43;48.53;;;8.00;;
74626;SDS011;63132;52.268;5.192;2022-12-24T01:29:08;50.05;;;7.70;;
74626;SDS011;63132;52.268;5.192;2022-12-24T01:31:34;49.20;;;8.03;;
74626;SDS011;63132;52.268;5.192;2022-12-24T01:33:59;43.03;;;6.30;;
74626;SDS011;63132;52.268;5.192;2022-12-24T01:36:24;41.37;;;7.73;;
74626;SDS011;63132;52.268;5.192;2022-12-24T01:38:50;50.25;;;7.40;;
74626;SDS011;63132;52.268;5.192;2022-12-24T01:41:16;50.88;;;7.50;;
74626;SDS011;63132;52.268;5.192;2022-12-24T01:44:27;42.77;;;7.87;;
74626;SDS011;63132;52.268;5.192;2022-12-24T01:47:06;50.63;;;8.07;;
74626;SDS011;63132;52.268;5.192;2022-12-24T01:49:33;46.67;;;8.18;;
74626;SDS011;63132;52.268;5.192;2022-12-24T01:52:06;49.33;;;8.17;;
74626;SDS011;63132;52.268;5.192;2022-12-24T01:54:45;47.22;;;7.70;;
74626;SDS011;63132;52.268;5.192;2022-12-24T01:57:19;51.03;;;7.97;;
74626;SDS011;63132;52.268;5.192;2022-12-24T01:59:48;51.55;;;8.02;;
74626;SDS011;63132;52.268;5.192;2022-12-24T02:02:17;48.55;;;8.23;;
74626;SDS011;63132;52.268;5.192;2022-12-24T02:04:45;52.08;;;8.85;;
74626;SDS011;63132;52.268;5.192;2022-12-24T02:07:13;45.53;;;7.93;;
74626;SDS011;63132;52.268;5.192;2022-12-24T02:09:38;46.27;;;8.50;;
74626;SDS011;63132;52.268;5.192;2022-12-24T02:12:04;44.65;;;7.90;;
74626;SDS011;63132;52.268;5.192;2022-12-24T02:14:31;54.92;;;8.73;;
74626;SDS011;63132;52.268;5.192;2022-12-24T02:17:00;48.13;;;8.05;;
74626;SDS011;63132;52.268;5.192;2022-12-24T02:19:56;48.88;;;8.23;;
74626;SDS011;63132;52.268;5.192;2022-12-24T02:30:32;59.85;;;9.25;;
74626;SDS011;63132;52.268;5.192;2022-12-24T02:40:41;48.28;;;7.85;;
74626;SDS011;63132;52.268;5.192;2022-12-24T02:43:14;48.90;;;7.22;;
74626;SDS011;63132;52.268;5.192;2022-12-24T02:45:45;42.70;;;7.63;;
74626;SDS011;63132;52.268;5.192;2022-12-24T02:48:14;49.73;;;8.23;;
74626;SDS011;63132;52.268;5.192;2022-12-24T02:50:53;48.22;;;7.72;;
74626;SDS011;63132;52.268;5.192;2022-12-24T02:53:29;55.00;;;8.32;;
74626;SDS011;63132;52.268;5.192;2022-12-24T02:56:15;46.60;;;7.47;;
74626;SDS011;63132;52.268;5.192;2022-12-24T03:07:27;55.33;;;8.50;;
74626;SDS011;63132;52.268;5.192;2022-12-24T03:12:47;47.55;;;7.57;;
74626;SDS011;63132;52.268;5.192;2022-12-24T03:15:16;57.28;;;8.25;;
74626;SDS011;63132;52.268;5.192;2022-12-24T03:17:45;56.30;;;7.75;;
74626;SDS011;63132;52.268;5.192;2022-12-24T03:20:14;51.70;;;8.43;;
74626;SDS011;63132;52.268;5.192;2022-12-24T03:22:44;51.40;;;7.67;;
74626;SDS011;63132;52.268;5.192;2022-12-24T03:25:11;54.65;;;7.80;;
74626;SDS011;63132;52.268;5.192;2022-12-24T03:27:36;50.28;;;8.13;;
74626;SDS011;63132;52.268;5.192;2022-12-24T03:30:03;52.65;;;8.63;;
74626;SDS011;63132;52.268;5.192;2022-12-24T03:32:32;47.53;;;7.72;;
74626;SDS011;63132;52.268;5.192;2022-12-24T03:34:58;56.10;;;8.33;;
74626;SDS011;63132;52.268;5.192;2022-12-24T03:37:23;43.60;;;7.30;;
74626;SDS011;63132;52.268;5.192;2022-12-24T03:39:49;45.45;;;7.65;;
74626;SDS011;63132;52.268;5.192;2022-12-24T03:42:15;46.10;;;7.65;;
74626;SDS011;63132;52.268;5.192;2022-12-24T03:44:41;42.10;;;6.50;;
74626;SDS011;63132;52.268;5.192;2022-12-24T03:47:06;41.97;;;6.70;;
74626;SDS011;63132;52.268;5.192;2022-12-24T03:49:31;45.50;;;7.30;;
74626;SDS011;63132;52.268;5.192;2022-12-24T03:51:57;43.67;;;8.03;;
74626;SDS011;63132;52.268;5.192;2022-12-24T03:54:22;41.03;;;6.73;;
74626;SDS011;63132;52.268;5.192;2022-12-24T03:56:47;43.20;;;6.13;;
74626;SDS011;63132;52.268;5.192;2022-12-24T03:59:13;48.72;;;6.85;;
74626;SDS011;63132;52.268;5.192;2022-12-24T04:01:39;49.03;;;7.43;;
74626;SDS011;63132;52.268;5.192;2022-12-24T04:04:04;44.73;;;7.40;;
74626;SDS011;63132;52.268;5.192;2022-12-24T04:06:30;37.67;;;7.13;;
74626;SDS011;63132;52.268;5.192;2022-12-24T04:08:55;40.15;;;6.88;;
74626;SDS011;63132;52.268;5.192;2022-12-24T04:11:23;41.42;;;6.28;;
74626;SDS011;63132;52.268;5.192;2022-12-24T04:13:48;34.50;;;6.57;;
74626;SDS011;63132;52.268;5.192;2022-12-24T04:16:14;42.27;;;6.93;;
74626;SDS011;63132;52.268;5.192;2022-12-24T04:18:41;39.95;;;6.70;;
74626;SDS011;63132;52.268;5.192;2022-12-24T04:21:06;35.30;;;6.72;;
74626;SDS011;63132;52.268;5.192;2022-12-24T04:23:33;46.75;;;6.93;;
74626;SDS011;63132;52.268;5.192;2022-12-24T04:26:00;43.70;;;6.45;;
74626;SDS011;63132;52.268;5.192;2022-12-24T04:28:25;46.60;;;7.22;;
74626;SDS011;63132;52.268;5.192;2022-12-24T04:30:56;45.33;;;6.68;;
74626;SDS011;63132;52.268;5.192;2022-12-24T04:33:22;44.73;;;7.30;;
74626;SDS011;63132;52.268;5.192;2022-12-24T04:35:48;37.93;;;6.90;;
74626;SDS011;63132;52.268;5.192;2022-12-24T04:38:13;45.57;;;7.97;;
74626;SDS011;63132;52.268;5.192;2022-12-24T04:40:38;43.60;;;7.03;;
74626;SDS011;63132;52.268;5.192;2022-12-24T04:43:04;37.97;;;7.00;;
74626;SDS011;63132;52.268;5.192;2022-12-24T04:45:30;43.77;;;7.70;;
74626;SDS011;63132;52.268;5.192;2022-12-24T04:47:55;43.45;;;7.82;;
74626;SDS011;63132;52.268;5.192;2022-12-24T04:50:21;43.23;;;8.07;;
74626;SDS011;63132;52.268;5.192;2022-12-24T04:52:46;43.17;;;7.30;;
74626;SDS011;63132;52.268;5.192;2022-12-24T04:55:11;47.90;;;8.17;;
74626;SDS011;63132;52.268;5.192;2022-12-24T04:57:37;47.90;;;7.97;;
74626;SDS011;63132;52.268;5.192;2022-12-24T05:00:03;48.07;;;7.50;;
74626;SDS011;63132;52.268;5.192;2022-12-24T05:02:30;51.00;;;8.13;;
74626;SDS011;63132;52.268;5.192;2022-12-24T05:04:55;49.57;;;8.60;;
74626;SDS011;63132;52.268;5.192;2022-12-24T05:07:20;50.78;;;7.82;;
74626;SDS011;63132;52.268;5.192;2022-12-24T05:09:46;46.92;;;8.23;;
74626;SDS011;63132;52.268;5.192;2022-12-24T05:12:12;42.30;;;7.32;;
74626;SDS011;63132;52.268;5.192;2022-12-24T05:14:37;50.70;;;8.13;;
74626;SDS011;63132;52.268;5.192;2022-12-24T05:17:03;46.35;;;7.97;;
74626;SDS011;63132;52.268;5.192;2022-12-24T05:19:29;47.43;;;7.87;;
74626;SDS011;63132;52.268;5.192;2022-12-24T05:21:54;43.10;;;7.60;;
74626;SDS011;63132;52.268;5.192;2022-12-24T05:24:38;52.78;;;8.00;;
74626;SDS011;63132;52.268;5.192;2022-12-24T05:27:22;44.78;;;7.70;;
74626;SDS011;63132;52.268;5.192;2022-12-24T05:29:48;54.80;;;8.43;;
74626;SDS011;63132;52.268;5.192;2022-12-24T05:32:13;40.75;;;7.63;;
74626;SDS011;63132;52.268;5.192;2022-12-24T05:34:39;44.78;;;7.80;;
74626;SDS011;63132;52.268;5.192;2022-12-24T05:37:04;51.87;;;8.37;;
74626;SDS011;63132;52.268;5.192;2022-12-24T05:39:29;51.90;;;9.33;;
74626;SDS011;63132;52.268;5.192;2022-12-24T05:41:55;49.88;;;7.55;;
74626;SDS011;63132;52.268;5.192;2022-12-24T05:44:20;46.70;;;7.50;;
74626;SDS011;63132;52.268;5.192;2022-12-24T05:46:46;54.93;;;9.07;;
74626;SDS011;63132;52.268;5.192;2022-12-24T05:49:11;55.85;;;7.93;;
74626;SDS011;63132;52.268;5.192;2022-12-24T05:51:37;50.95;;;8.73;;
74626;SDS011;63132;52.268;5.192;2022-12-24T05:54:04;60.65;;;8.60;;
74626;SDS011;63132;52.268;5.192;2022-12-24T05:56:30;50.43;;;8.53;;
74626;SDS011;63132;52.268;5.192;2022-12-24T05:58:56;50.85;;;8.38;;
74626;SDS011;63132;52.268;5.192;2022-12-24T06:01:22;50.80;;;8.23;;
74626;SDS011;63132;52.268;5.192;2022-12-24T06:03:48;57.33;;;7.80;;
74626;SDS011;63132;52.268;5.192;2022-12-24T06:06:18;49.08;;;8.00;;
74626;SDS011;63132;52.268;5.192;2022-12-24T06:08:45;46.42;;;7.90;;
74626;SDS011;63132;52.268;5.192;2022-12-24T06:11:12;51.15;;;8.27;;
74626;SDS011;63132;52.268;5.192;2022-12-24T06:13:40;36.70;;;6.82;;
74626;SDS011;63132;52.268;5.192;2022-12-24T06:16:07;54.28;;;8.40;;
74626;SDS011;63132;52.268;5.192;2022-12-24T06:18:34;54.15;;;8.57;;
74626;SDS011;63132;52.268;5.192;2022-12-24T06:21:00;49.05;;;8.02;;
74626;SDS011;63132;52.268;5.192;2022-12-24T06:23:27;47.87;;;8.10;;
74626;SDS011;63132;52.268;5.192;2022-12-24T06:25:57;54.13;;;8.70;;
74626;SDS011;63132;52.268;5.192;2022-12-24T06:28:27;53.85;;;7.72;;
74626;SDS011;63132;52.268;5.192;2022-12-24T06:30:53;54.17;;;7.72;;
74626;SDS011;63132;52.268;5.192;2022-12-24T06:33:19;51.08;;;8.43;;
74626;SDS011;63132;52.268;5.192;2022-12-24T06:35:44;51.75;;;8.27;;
74626;SDS011;63132;52.268;5.192;2022-12-24T06:38:10;47.72;;;7.60;;
74626;SDS011;63132;52.268;5.192;2022-12-24T06:40:36;58.70;;;8.50;;
74626;SDS011;63132;52.268;5.192;2022-12-24T06:43:03;55.30;;;9.23;;
74626;SDS011;63132;52.268;5.192;2022-12-24T06:45:28;50.35;;;8.30;;
74626;SDS011;63132;52.268;5.192;2022-12-24T06:47:54;48.45;;;7.78;;
74626;SDS011;63132;52.268;5.192;2022-12-24T06:50:19;50.57;;;8.47;;
74626;SDS011;63132;52.268;5.192;2022-12-24T06:52:44;60.30;;;8.77;;
74626;SDS011;63132;52.268;5.192;2022-12-24T06:55:10;45.70;;;8.25;;
74626;SDS011;63132;52.268;5.192;2022-12-24T06:57:35;56.40;;;8.70;;
74626;SDS011;63132;52.268;5.192;2022-12-24T07:00:01;53.40;;;8.20;;
74626;SDS011;63132;52.268;5.192;2022-12-24T07:02:26;56.50;;;9.13;;
74626;SDS011;63132;52.268;5.192;2022-12-24T07:04:52;51.23;;;8.63;;
74626;SDS011;63132;52.268;5.192;2022-12-24T07:07:17;59.00;;;9.67;;
74626;SDS011;63132;52.268;5.192;2022-12-24T07:09:42;53.40;;;8.10;;
74626;SDS011;63132;52.268;5.192;2022-12-24T07:12:08;51.47;;;8.52;;
74626;SDS011;63132;52.268;5.192;2022-12-24T07:14:33;50.57;;;7.53;;
74626;SDS011;63132;52.268;5.192;2022-12-24T07:16:59;57.70;;;8.40;;
74626;SDS011;63132;52.268;5.192;2022-12-24T07:19:24;50.25;;;8.07;;
74626;SDS011;63132;52.268;5.192;2022-12-24T07:21:49;53.83;;;8.70;;
74626;SDS011;63132;52.268;5.192;2022-12-24T07:24:15;51.20;;;8.77;;
74626;SDS011;63132;52.268;5.192;2022-12-24T07:26:41;50.00;;;8.35;;
74626;SDS011;63132;52.268;5.192;2022-12-24T07:29:06;54.33;;;8.47;;
74626;SDS011;63132;52.268;5.192;2022-12-24T07:31:32;58.03;;;9.18;;
74626;SDS011;63132;52.268;5.192;2022-12-24T07:33:57;50.30;;;8.93;;
74626;SDS011;63132;52.268;5.192;2022-12-24T07:36:23;49.08;;;8.02;;
74626;SDS011;63132;52.268;5.192;2022-12-24T07:38:48;51.50;;;8.73;;
74626;SDS011;63132;52.268;5.192;2022-12-24T07:41:15;51.50;;;9.30;;
74626;SDS011;63132;52.268;5.192;2022-12-24T07:43:40;59.80;;;9.20;;
74626;SDS011;63132;52.268;5.192;2022-12-24T07:46:06;63.75;;;10.10;;
74626;SDS011;63132;52.268;5.192;2022-12-24T07:48:31;58.90;;;9.45;;
74626;SDS011;63132;52.268;5.192;2022-12-24T07:50:57;57.63;;;8.40;;
74626;SDS011;63132;52.268;5.192;2022-12-24T07:53:23;59.47;;;9.25;;
74626;SDS011;63132;52.268;5.192;2022-12-24T07:55:49;55.35;;;8.80;;
74626;SDS011;63132;52.268;5.192;2022-12-24T07:58:15;62.55;;;10.05;;
74626;SDS011;63132;52.268;5.192;2022-12-24T08:00:41;58.65;;;9.73;;
74626;SDS011;63132;52.268;5.192;2022-12-24T08:03:06;62.63;;;9.85;;
74626;SDS011;63132;52.268;5.192;2022-12-24T08:05:39;66.28;;;9.93;;
74626;SDS011;63132;52.268;5.192;2022-12-24T08:08:05;61.85;;;9.25;;
74626;SDS011;63132;52.268;5.192;2022-12-24T08:10:30;59.40;;;10.80;;
74626;SDS011;63132;52.268;5.192;2022-12-24T08:12:56;61.87;;;10.27;;
74626;SDS011;63132;52.268;5.192;2022-12-24T08:15:21;64.88;;;10.27;;
74626;SDS011;63132;52.268;5.192;2022-12-24T08:17:46;59.07;;;9.40;;
74626;SDS011;63132;52.268;5.192;2022-12-24T08:20:12;66.60;;;10.20;;
74626;SDS011;63132;52.268;5.192;2022-12-24T08:22:37;60.20;;;9.63;;
74626;SDS011;63132;52.268;5.192;2022-12-24T08:25:03;64.57;;;10.45;;
74626;SDS011;63132;52.268;5.192;2022-12-24T08:27:28;62.33;;;10.87;;
74626;SDS011;63132;52.268;5.192;2022-12-24T08:29:54;64.73;;;10.30;;
74626;SDS011;63132;52.268;5.192;2022-12-24T08:32:19;54.33;;;9.77;;
74626;SDS011;63132;52.268;5.192;2022-12-24T08:34:44;60.17;;;10.17;;
74626;SDS011;63132;52.268;5.192;2022-12-24T08:37:13;60.07;;;10.53;;
74626;SDS011;63132;52.268;5.192;2022-12-24T08:39:38;58.80;;;9.93;;
74626;SDS011;63132;52.268;5.192;2022-12-24T08:42:03;55.43;;;9.87;;
74626;SDS011;63132;52.268;5.192;2022-12-24T08:44:29;63.30;;;9.67;;
74626;SDS011;63132;52.268;5.192;2022-12-24T08:46:54;59.27;;;10.30;;
74626;SDS011;63132;52.268;5.192;2022-12-24T08:49:20;58.50;;;8.52;;
74626;SDS011;63132;52.268;5.192;2022-12-24T08:51:45;58.07;;;9.40;;
74626;SDS011;63132;52.268;5.192;2022-12-24T08:54:10;57.83;;;9.83;;
74626;SDS011;63132;52.268;5.192;2022-12-24T08:56:36;52.45;;;8.98;;
74626;SDS011;63132;52.268;5.192;2022-12-24T08:59:01;57.22;;;9.65;;
74626;SDS011;63132;52.268;5.192;2022-12-24T09:01:27;56.57;;;8.77;;
74626;SDS011;63132;52.268;5.192;2022-12-24T09:03:52;57.50;;;9.20;;
74626;SDS011;63132;52.268;5.192;2022-12-24T09:06:18;58.60;;;9.30;;
74626;SDS011;63132;52.268;5.192;2022-12-24T09:08:43;54.33;;;9.30;;
74626;SDS011;63132;52.268;5.192;2022-12-24T09:11:10;68.50;;;10.53;;
74626;SDS011;63132;52.268;5.192;2022-12-24T09:13:37;53.70;;;9.27;;
74626;SDS011;63132;52.268;5.192;2022-12-24T09:16:04;53.60;;;9.52;;
74626;SDS011;63132;52.268;5.192;2022-12-24T09:18:30;54.17;;;10.13;;
74626;SDS011;63132;52.268;5.192;2022-12-24T09:21:02;61.70;;;9.30;;
74626;SDS011;63132;52.268;5.192;2022-12-24T09:23:30;58.50;;;9.95;;
74626;SDS011;63132;52.268;5.192;2022-12-24T09:25:57;57.63;;;9.27;;
74626;SDS011;63132;52.268;5.192;2022-12-24T09:28:23;53.00;;;9.17;;
74626;SDS011;63132;52.268;5.192;2022-12-24T09:30:55;56.70;;;10.07;;
74626;SDS011;63132;52.268;5.192;2022-12-24T09:33:25;57.75;;;8.40;;
74626;SDS011;63132;52.268;5.192;2022-12-24T09:35:52;57.33;;;9.23;;
74626;SDS011;63132;52.268;5.192;2022-12-24T09:38:18;52.47;;;8.60;;
74626;SDS011;63132;52.268;5.192;2022-12-24T09:40:44;57.38;;;9.98;;
74626;SDS011;63132;52.268;5.192;2022-12-24T09:43:13;51.63;;;9.10;;
74626;SDS011;63132;52.268;5.192;2022-12-24T09:45:43;54.42;;;9.20;;
74626;SDS011;63132;52.268;5.192;2022-12-24T09:48:31;56.50;;;9.68;;
74626;SDS011;63132;52.268;5.192;2022-12-24T09:51:07;54.53;;;8.70;;
74626;SDS011;63132;52.268;5.192;2022-12-24T09:56:21;64.37;;;9.77;;
74626;SDS011;63132;52.268;5.192;2022-12-24T09:58:58;51.63;;;9.57;;
74626;SDS011;63132;52.268;5.192;2022-12-24T10:01:25;53.53;;;7.93;;
74626;SDS011;63132;52.268;5.192;2022-12-24T10:03:53;57.53;;;9.20;;
74626;SDS011;63132;52.268;5.192;2022-12-24T10:06:20;53.53;;;9.32;;
74626;SDS011;63132;52.268;5.192;2022-12-24T10:13:52;48.03;;;8.98;;
74626;SDS011;63132;52.268;5.192;2022-12-24T10:16:33;58.92;;;9.95;;
74626;SDS011;63132;52.268;5.192;2022-12-24T10:19:15;47.80;;;9.13;;
74626;SDS011;63132;52.268;5.192;2022-12-24T10:24:26;51.97;;;9.05;;
74626;SDS011;63132;52.268;5.192;2022-12-24T10:27:11;54.60;;;9.80;;
74626;SDS011;63132;52.268;5.192;2022-12-24T10:30:24;55.17;;;8.50;;
74626;SDS011;63132;52.268;5.192;2022-12-24T10:32:31;50.75;;;8.45;;
74626;SDS011;63132;52.268;5.192;2022-12-24T10:35:04;47.22;;;8.48;;
74626;SDS011;63132;52.268;5.192;2022-12-24T10:37:45;48.05;;;8.38;;
74626;SDS011;63132;52.268;5.192;2022-12-24T10:40:13;46.67;;;7.97;;
74626;SDS011;63132;52.268;5.192;2022-12-24T10:42:47;51.10;;;8.30;;
74626;SDS011;63132;52.268;5.192;2022-12-24T10:45:13;49.58;;;8.98;;
74626;SDS011;63132;52.268;5.192;2022-12-24T10:47:42;52.42;;;8.23;;
74626;SDS011;63132;52.268;5.192;2022-12-24T10:52:48;48.58;;;8.18;;
74626;SDS011;63132;52.268;5.192;2022-12-24T10:57:40;40.10;;;7.53;;
74626;SDS011;63132;52.268;5.192;2022-12-24T11:00:17;48.00;;;7.50;;
74626;SDS011;63132;52.268;5.192;2022-12-24T11:02:45;40.78;;;7.43;;
74626;SDS011;63132;52.268;5.192;2022-12-24T11:05:31;43.58;;;7.88;;
74626;SDS011;63132;52.268;5.192;2022-12-24T11:08:01;49.85;;;8.07;;
74626;SDS011;63132;52.268;5.192;2022-12-24T11:10:27;45.78;;;7.82;;
74626;SDS011;63132;52.268;5.192;2022-12-24T11:12:53;50.22;;;7.47;;
74626;SDS011;63132;52.268;5.192;2022-12-24T11:15:23;43.33;;;8.35;;
74626;SDS011;63132;52.268;5.192;2022-12-24T11:20:21;48.42;;;7.70;;
74626;SDS011;63132;52.268;5.192;2022-12-24T11:22:51;37.90;;;7.33;;
74626;SDS011;63132;52.268;5.192;2022-12-24T11:25:20;41.83;;;7.47;;
74626;SDS011;63132;52.268;5.192;2022-12-24T11:27:49;45.45;;;7.95;;
74626;SDS011;63132;52.268;5.192;2022-12-24T11:32:51;42.67;;;7.77;;
74626;SDS011;63132;52.268;5.192;2022-12-24T11:35:44;45.35;;;7.57;;
74626;SDS011;63132;52.268;5.192;2022-12-24T11:38:14;42.15;;;6.72;;
74626;SDS011;63132;52.268;5.192;2022-12-24T11:40:45;40.53;;;7.15;;
74626;SDS011;63132;52.268;5.192;2022-12-24T11:43:19;37.17;;;7.30;;
74626;SDS011;63132;52.268;5.192;2022-12-24T11:48:25;41.58;;;7.60;;
74626;SDS011;63132;52.268;5.192;2022-12-24T11:50:55;35.85;;;6.60;;
74626;SDS011;63132;52.268;5.192;2022-12-24T11:53:39;33.35;;;6.38;;
74626;SDS011;63132;52.268;5.192;2022-12-24T11:58:51;34.90;;;5.93;;
74626;SDS011;63132;52.268;5.192;2022-12-24T12:04:18;35.47;;;5.68;;
74626;SDS011;63132;52.268;5.192;2022-12-24T12:06:48;34.67;;;6.70;;
74626;SDS011;63132;52.268;5.192;2022-12-24T12:12:04;41.85;;;5.65;;
74626;SDS011;63132;52.268;5.192;2022-12-24T12:14:56;34.65;;;5.63;;
74626;SDS011;63132;52.268;5.192;2022-12-24T12:17:30;29.17;;;5.18;;
74626;SDS011;63132;52.268;5.192;2022-12-24T12:20:04;33.13;;;5.82;;
74626;SDS011;63132;52.268;5.192;2022-12-24T12:22:39;32.85;;;6.43;;
74626;SDS011;63132;52.268;5.192;2022-12-24T12:25:37;34.35;;;5.55;;
74626;SDS011;63132;52.268;5.192;2022-12-24T12:28:21;29.98;;;6.05;;
74626;SDS011;63132;52.268;5.192;2022-12-24T12:36:48;34.55;;;5.38;;
74626;SDS011;63132;52.268;5.192;2022-12-24T12:39:18;33.92;;;5.75;;
74626;SDS011;63132;52.268;5.192;2022-12-24T12:41:54;32.67;;;6.17;;
74626;SDS011;63132;52.268;5.192;2022-12-24T12:58:22;31.10;;;5.95;;
74626;SDS011;63132;52.268;5.192;2022-12-24T13:00:53;34.57;;;6.27;;
74626;SDS011;63132;52.268;5.192;2022-12-24T13:09:17;33.45;;;6.15;;
74626;SDS011;63132;52.268;5.192;2022-12-24T13:12:34;36.60;;;6.22;;
74626;SDS011;63132;52.268;5.192;2022-12-24T13:20:23;35.00;;;6.00;;
74626;SDS011;63132;52.268;5.192;2022-12-24T13:23:10;34.00;;;5.68;;
74626;SDS011;63132;52.268;5.192;2022-12-24T13:25:41;33.72;;;6.00;;
74626;SDS011;63132;52.268;5.192;2022-12-24T13:28:14;33.60;;;6.22;;
74626;SDS011;63132;52.268;5.192;2022-12-24T13:30:39;29.73;;;5.82;;
74626;SDS011;63132;52.268;5.192;2022-12-24T13:33:12;36.38;;;6.43;;
74626;SDS011;63132;52.268;5.192;2022-12-24T13:36:02;32.80;;;5.43;;
74626;SDS011;63132;52.268;5.192;2022-12-24T13:38:39;32.47;;;5.63;;
74626;SDS011;63132;52.268;5.192;2022-12-24T13:41:51;39.03;;;6.13;;
74626;SDS011;63132;52.268;5.192;2022-12-24T13:46:45;38.53;;;5.68;;
74626;SDS011;63132;52.268;5.192;2022-12-24T13:49:11;39.30;;;6.85;;
74626;SDS011;63132;52.268;5.192;2022-12-24T13:55:25;35.15;;;6.00;;
74626;SDS011;63132;52.268;5.192;2022-12-24T13:57:42;34.55;;;6.35;;
74626;SDS011;63132;52.268;5.192;2022-12-24T14:00:24;33.75;;;5.57;;
74626;SDS011;63132;52.268;5.192;2022-12-24T14:02:57;33.22;;;5.93;;
74626;SDS011;63132;52.268;5.192;2022-12-24T14:05:32;40.65;;;6.65;;
74626;SDS011;63132;52.268;5.192;2022-12-24T14:08:01;35.95;;;6.20;;
74626;SDS011;63132;52.268;5.192;2022-12-24T14:10:41;38.05;;;6.45;;
74626;SDS011;63132;52.268;5.192;2022-12-24T14:16:13;35.15;;;5.85;;
74626;SDS011;63132;52.268;5.192;2022-12-24T14:18:42;36.75;;;6.25;;
74626;SDS011;63132;52.268;5.192;2022-12-24T14:21:31;32.40;;;6.10;;
74626;SDS011;63132;52.268;5.192;2022-12-24T14:26:31;32.50;;;6.05;;
74626;SDS011;63132;52.268;5.192;2022-12-24T14:29:02;40.50;;;5.72;;
74626;SDS011;63132;52.268;5.192;2022-12-24T14:31:31;37.60;;;6.20;;
74626;SDS011;63132;52.268;5.192;2022-12-24T14:34:11;34.20;;;5.63;;
74626;SDS011;63132;52.268;5.192;2022-12-24T14:36:37;34.60;;;5.80;;
74626;SDS011;63132;52.268;5.192;2022-12-24T14:39:04;36.70;;;6.07;;
74626;SDS011;63132;52.268;5.192;2022-12-24T14:41:58;34.35;;;6.00;;
74626;SDS011;63132;52.268;5.192;2022-12-24T14:44:54;30.25;;;5.93;;
74626;SDS011;63132;52.268;5.192;2022-12-24T14:50:04;31.52;;;5.70;;
74626;SDS011;63132;52.268;5.192;2022-12-24T14:53:06;35.20;;;6.32;;
74626;SDS011;63132;52.268;5.192;2022-12-24T14:56:00;34.13;;;5.72;;
74626;SDS011;63132;52.268;5.192;2022-12-24T14:58:37;34.88;;;6.22;;
74626;SDS011;63132;52.268;5.192;2022-12-24T15:04:03;30.90;;;5.70;;
74626;SDS011;63132;52.268;5.192;2022-12-24T15:06:48;36.33;;;6.32;;
74626;SDS011;63132;52.268;5.192;2022-12-24T15:09:21;30.50;;;5.82;;
74626;SDS011;63132;52.268;5.192;2022-12-24T15:11:53;29.88;;;5.45;;
74626;SDS011;63132;52.268;5.192;2022-12-24T15:14:23;33.95;;;6.03;;
74626;SDS011;63132;52.268;5.192;2022-12-24T15:16:52;35.83;;;5.88;;
74626;SDS011;63132;52.268;5.192;2022-12-24T15:19:31;46.15;;;7.32;;
74626;SDS011;63132;52.268;5.192;2022-12-24T15:21:57;38.10;;;6.97;;
74626;SDS011;63132;52.268;5.192;2022-12-24T15:24:24;42.47;;;7.60;;
74626;SDS011;63132;52.268;5.192;2022-12-24T15:26:56;43.03;;;6.97;;
74626;SDS011;63132;52.268;5.192;2022-12-24T15:29:23;33.00;;;6.07;;
74626;SDS011;63132;52.268;5.192;2022-12-24T15:31:54;40.78;;;6.65;;
74626;SDS011;63132;52.268;5.192;2022-12-24T15:34:54;30.58;;;5.57;;
74626;SDS011;63132;52.268;5.192;2022-12-24T15:37:21;36.03;;;5.90;;
74626;SDS011;63132;52.268;5.192;2022-12-24T15:42:30;42.22;;;6.65;;
74626;SDS011;63132;52.268;5.192;2022-12-24T15:45:00;37.50;;;6.45;;
74626;SDS011;63132;52.268;5.192;2022-12-24T15:47:30;35.88;;;5.60;;
74626;SDS011;63132;52.268;5.192;2022-12-24T15:50:03;36.10;;;6.32;;
74626;SDS011;63132;52.268;5.192;2022-12-24T15:52:43;36.33;;;5.82;;
74626;SDS011;63132;52.268;5.192;2022-12-24T15:57:57;33.20;;;5.75;;
74626;SDS011;63132;52.268;5.192;2022-12-24T16:00:24;27.90;;;4.85;;
74626;SDS011;63132;52.268;5.192;2022-12-24T16:05:42;31.25;;;5.43;;
74626;SDS011;63132;52.268;5.192;2022-12-24T16:10:43;34.20;;;6.47;;
74626;SDS011;63132;52.268;5.192;2022-12-24T16:16:04;40.28;;;8.55;;
74626;SDS011;63132;52.268;5.192;2022-12-24T16:18:37;48.10;;;10.97;;
74626;SDS011;63132;52.268;5.192;2022-12-24T16:21:09;34.60;;;8.32;;
74626;SDS011;63132;52.268;5.192;2022-12-24T16:23:45;42.60;;;9.70;;
74626;SDS011;63132;52.268;5.192;2022-12-24T16:26:14;40.67;;;9.37;;
74626;SDS011;63132;52.268;5.192;2022-12-24T16:28:40;50.45;;;11.70;;
74626;SDS011;63132;52.268;5.192;2022-12-24T16:31:05;57.77;;;11.87;;
74626;SDS011;63132;52.268;5.192;2022-12-24T16:33:31;60.17;;;11.63;;
74626;SDS011;63132;52.268;5.192;2022-12-24T16:35:56;62.37;;;12.83;;
74626;SDS011;63132;52.268;5.192;2022-12-24T16:38:22;55.28;;;10.75;;
74626;SDS011;63132;52.268;5.192;2022-12-24T16:40:47;44.08;;;10.93;;
74626;SDS011;63132;52.268;5.192;2022-12-24T16:43:13;49.17;;;13.50;;
74626;SDS011;63132;52.268;5.192;2022-12-24T16:46:01;52.55;;;14.40;;
74626;SDS011;63132;52.268;5.192;2022-12-24T16:48:29;46.55;;;13.18;;